createdAt,value
2017-08-04T00:00:54.489Z,48.70
2017-08-04T00:03:22.708Z,48.70
2017-08-04T00:05:50.944Z,49.50
2017-08-04T00:08:19.527Z,50.90
2017-08-04T00:10:47.761Z,49.00
2017-08-04T00:13:16.000Z,49.00
2017-08-04T00:15:44.261Z,50.90
2017-08-04T00:18:12.496Z,50.10
2017-08-04T00:20:40.732Z,51.20
2017-08-04T00:23:09.388Z,52.70
2017-08-04T00:25:37.631Z,52.70
2017-08-04T00:28:05.848Z,52.40
2017-08-04T00:30:34.112Z,51.80
2017-08-04T00:33:02.340Z,52.70
2017-08-04T00:35:30.783Z,52.30
2017-08-04T00:37:59.162Z,52.30
2017-08-04T00:40:28.192Z,49.20
2017-08-04T00:42:56.422Z,48.90
2017-08-04T00:45:25.105Z,52.70
2017-08-04T00:47:53.329Z,51.40
2017-08-04T00:50:21.556Z,48.40
2017-08-04T00:52:49.816Z,49.20
2017-08-04T00:55:18.044Z,49.00
2017-08-04T00:57:46.269Z,49.50
2017-08-04T01:00:14.528Z,49.90
2017-08-04T01:02:43.037Z,50.10
2017-08-04T01:05:11.268Z,52.30
2017-08-04T01:07:39.544Z,55.40
2017-08-04T01:10:08.067Z,58.30
2017-08-04T01:12:36.305Z,60.80
2017-08-04T01:15:04.782Z,61.90
2017-08-04T01:17:33.011Z,62.20
2017-08-04T01:20:01.255Z,63.00
2017-08-04T01:22:29.700Z,63.00
2017-08-04T01:24:57.932Z,64.20
2017-08-04T01:27:26.173Z,64.80
2017-08-04T01:29:54.760Z,64.80
2017-08-04T01:32:22.992Z,65.80
2017-08-04T01:34:51.623Z,65.50
2017-08-04T01:37:20.094Z,65.50
2017-08-04T01:39:48.320Z,65.30
2017-08-04T01:42:16.555Z,65.10
2017-08-04T01:44:44.888Z,64.90
2017-08-04T01:47:13.518Z,66.60
2017-08-04T01:49:41.745Z,66.60
2017-08-04T01:52:10.409Z,66.40
2017-08-04T01:54:38.640Z,66.40
2017-08-04T01:57:06.873Z,66.40
2017-08-04T01:59:35.548Z,66.60
2017-08-04T02:02:03.802Z,66.60
2017-08-04T02:04:33.076Z,66.40
2017-08-04T02:07:01.371Z,66.40
2017-08-04T02:09:29.868Z,66.00
2017-08-04T02:11:58.105Z,64.40
2017-08-04T02:14:26.375Z,65.10
2017-08-04T02:16:54.608Z,63.50
2017-08-04T02:19:22.838Z,64.20
2017-08-04T02:21:52.605Z,63.50
2017-08-04T02:24:20.858Z,63.10
2017-08-04T02:26:49.345Z,63.30
2017-08-04T02:29:17.568Z,64.40
2017-08-04T02:31:45.827Z,63.30
2017-08-04T02:34:14.064Z,64.00
2017-08-04T02:36:42.301Z,65.30
2017-08-04T02:39:10.787Z,66.00
2017-08-04T02:41:39.016Z,66.20
2017-08-04T02:44:07.652Z,67.40
2017-08-04T02:46:36.068Z,67.40
2017-08-04T02:49:04.312Z,68.00
2017-08-04T02:51:32.544Z,68.20
2017-08-04T02:54:00.804Z,68.00
2017-08-04T02:56:29.434Z,68.20
2017-08-04T02:58:57.669Z,68.20
2017-08-04T03:01:33.455Z,69.10
2017-08-04T03:04:01.688Z,69.10
2017-08-04T03:06:30.668Z,70.00
2017-08-04T03:08:58.932Z,70.00
2017-08-04T03:11:27.172Z,69.60
2017-08-04T03:13:55.908Z,69.60
2017-08-04T03:16:24.193Z,69.80
2017-08-04T03:18:52.429Z,70.90
2017-08-04T03:21:20.668Z,71.60
2017-08-04T03:23:48.943Z,72.50
2017-08-04T03:26:17.176Z,72.50
2017-08-04T03:28:45.412Z,73.20
2017-08-04T03:31:13.685Z,73.70
2017-08-04T03:33:41.923Z,74.50
2017-08-04T03:36:10.552Z,77.00
2017-08-04T03:38:38.828Z,77.00
2017-08-04T03:41:07.058Z,77.30
2017-08-04T03:43:35.709Z,77.10
2017-08-04T03:46:04.308Z,77.10
2017-08-04T03:48:32.535Z,77.10
2017-08-04T03:51:00.772Z,76.60
2017-08-04T03:53:29.443Z,74.30
2017-08-04T03:55:57.717Z,74.30
2017-08-04T03:58:25.940Z,74.50
2017-08-04T04:00:54.212Z,74.50
2017-08-04T04:03:22.477Z,74.10
2017-08-04T04:05:51.107Z,71.40
2017-08-04T04:08:19.377Z,71.40
2017-08-04T04:10:47.640Z,69.80
2017-08-04T04:13:15.888Z,67.80
2017-08-04T04:15:44.561Z,63.10
2017-08-04T04:18:13.211Z,60.80
2017-08-04T04:20:41.448Z,60.80
2017-08-04T04:23:09.708Z,60.60
2017-08-04T04:25:38.354Z,59.40
2017-08-04T04:28:06.639Z,59.40
2017-08-04T04:30:34.923Z,59.70
2017-08-04T04:33:03.170Z,58.90
2017-08-04T04:35:31.429Z,58.30
2017-08-04T04:37:59.727Z,59.40
2017-08-04T04:40:28.328Z,59.10
2017-08-04T04:42:56.568Z,58.60
2017-08-04T04:45:24.864Z,58.50
2017-08-04T04:47:53.106Z,57.30
2017-08-04T04:50:21.350Z,57.90
2017-08-04T04:52:50.012Z,57.90
2017-08-04T04:55:18.242Z,57.90
2017-08-04T04:57:46.477Z,58.20
2017-08-04T05:00:14.748Z,56.70
2017-08-04T05:02:43.200Z,57.70
2017-08-04T05:05:11.578Z,57.30
2017-08-04T05:07:39.855Z,57.00
2017-08-04T05:10:08.097Z,56.60
2017-08-04T05:12:36.552Z,57.20
2017-08-04T05:15:05.430Z,56.70
2017-08-04T05:17:33.668Z,56.70
2017-08-04T05:20:01.894Z,56.00
2017-08-04T05:22:30.169Z,54.50
2017-08-04T05:24:58.822Z,54.50
2017-08-04T05:27:27.312Z,54.50
2017-08-04T05:29:55.807Z,55.40
2017-08-04T05:32:24.048Z,53.30
2017-08-04T05:34:52.310Z,52.60
2017-08-04T05:37:21.028Z,49.60
2017-08-04T05:39:49.261Z,51.20
2017-08-04T05:42:17.792Z,50.10
2017-08-04T05:44:46.081Z,52.30
2017-08-04T05:47:14.317Z,50.40
2017-08-04T05:49:42.561Z,51.50
2017-08-04T05:52:10.867Z,50.50
2017-08-04T05:54:40.199Z,49.30
2017-08-04T05:57:08.617Z,49.80
2017-08-04T05:59:36.909Z,44.70
2017-08-04T06:02:05.131Z,47.70
2017-08-04T06:04:33.435Z,46.70
2017-08-04T06:07:01.731Z,47.70
2017-08-04T06:09:29.964Z,47.10
2017-08-04T06:11:58.187Z,46.80
2017-08-04T06:14:26.448Z,46.20
2017-08-04T06:16:54.679Z,45.30
2017-08-04T06:19:22.906Z,43.40
2017-08-04T06:21:51.223Z,44.10
2017-08-04T06:24:19.496Z,41.20
2017-08-04T06:26:47.731Z,41.90
2017-08-04T06:29:16.014Z,42.80
2017-08-04T06:31:44.271Z,43.30
2017-08-04T06:34:12.831Z,42.70
2017-08-04T06:36:41.526Z,43.00
2017-08-04T06:39:10.152Z,41.80
2017-08-04T06:41:38.397Z,41.80
2017-08-04T06:44:06.730Z,42.80
2017-08-04T06:46:34.986Z,43.60
2017-08-04T06:49:15.406Z,43.90
2017-08-04T06:51:55.960Z,44.90
2017-08-04T06:54:48.921Z,44.90
2017-08-04T06:57:17.556Z,45.20
2017-08-04T06:59:45.844Z,45.20
2017-08-04T07:02:14.122Z,46.10
2017-08-04T07:04:42.571Z,47.30
2017-08-04T07:07:10.813Z,47.50
2017-08-04T07:09:39.759Z,45.50
2017-08-04T07:12:08.878Z,45.50
2017-08-04T07:14:37.226Z,43.60
2017-08-04T07:17:05.527Z,43.60
2017-08-04T07:19:33.872Z,42.80
2017-08-04T07:22:02.142Z,42.40
2017-08-04T07:24:31.977Z,42.70
2017-08-04T07:27:02.717Z,43.10
2017-08-04T07:29:32.108Z,42.80
2017-08-04T07:32:00.999Z,42.20
2017-08-04T07:34:29.736Z,44.10
2017-08-04T07:37:02.121Z,45.90
2017-08-04T07:39:31.686Z,45.90
2017-08-04T07:41:59.988Z,46.40
2017-08-04T07:44:29.186Z,48.40
2017-08-04T07:46:57.732Z,48.40
2017-08-04T07:49:26.025Z,49.20
2017-08-04T07:51:54.266Z,49.00
2017-08-04T07:54:22.524Z,49.00
2017-08-04T07:56:51.508Z,48.10
2017-08-04T07:59:19.948Z,45.80
2017-08-04T08:01:48.419Z,44.40
2017-08-04T08:04:16.717Z,43.60
2017-08-04T08:06:47.892Z,43.10
2017-08-04T08:09:16.136Z,41.80
2017-08-04T08:11:44.505Z,40.90
2017-08-04T08:14:12.752Z,39.40
2017-08-04T08:16:41.048Z,38.70
2017-08-04T08:19:09.425Z,38.10
2017-08-04T08:21:37.668Z,36.80
2017-08-04T08:24:05.905Z,37.60
2017-08-04T08:26:34.404Z,37.40
2017-08-04T08:29:02.632Z,37.50
2017-08-04T08:31:30.885Z,37.40
2017-08-04T08:33:59.674Z,38.40
2017-08-04T08:36:27.912Z,37.60
2017-08-04T08:38:56.150Z,37.90
2017-08-04T08:41:24.448Z,38.10
2017-08-04T08:43:53.088Z,38.50
2017-08-04T08:46:21.336Z,38.50
2017-08-04T08:48:49.762Z,37.60
2017-08-04T08:51:18.112Z,37.20
2017-08-04T08:53:46.344Z,36.80
2017-08-04T08:56:14.886Z,36.20
2017-08-04T08:58:43.140Z,35.90
2017-08-04T09:01:11.372Z,35.70
2017-08-04T09:03:40.047Z,34.80
2017-08-04T09:06:08.304Z,34.80
2017-08-04T09:08:36.581Z,36.60
2017-08-04T09:11:05.054Z,36.50
2017-08-04T09:13:33.402Z,35.60
2017-08-04T09:16:01.690Z,35.00
2017-08-04T09:18:30.228Z,35.00
2017-08-04T09:20:58.697Z,34.00
2017-08-04T09:23:27.354Z,32.90
2017-08-04T09:25:55.826Z,32.90
2017-08-04T09:28:24.044Z,32.60
2017-08-04T09:30:52.323Z,32.20
2017-08-04T09:33:20.761Z,31.40
2017-08-04T09:35:49.024Z,31.30
2017-08-04T09:38:17.710Z,31.00
2017-08-04T09:40:46.114Z,31.00
2017-08-04T09:43:14.365Z,31.90
2017-08-04T09:45:42.599Z,31.70
2017-08-04T09:48:10.982Z,32.30
2017-08-04T09:50:39.625Z,30.70
2017-08-04T09:53:07.865Z,30.70
2017-08-04T09:55:36.321Z,30.60
2017-08-04T09:58:04.592Z,31.30
2017-08-04T10:00:33.461Z,31.90
2017-08-04T10:03:02.105Z,31.70
2017-08-04T10:05:30.383Z,30.80
2017-08-04T10:07:59.482Z,30.30
2017-08-04T10:10:27.848Z,30.30
2017-08-04T10:12:56.094Z,30.30
2017-08-04T10:15:24.772Z,31.40
2017-08-04T10:17:53.179Z,31.40
2017-08-04T10:20:21.471Z,32.60
2017-08-04T10:22:49.712Z,33.80
2017-08-04T10:25:18.133Z,33.10
2017-08-04T10:27:46.367Z,33.40
2017-08-04T10:30:15.000Z,32.90
2017-08-04T10:32:43.519Z,32.90
2017-08-04T10:35:12.153Z,33.10
2017-08-04T10:37:40.440Z,33.20
2017-08-04T10:40:08.927Z,34.00
2017-08-04T10:42:37.177Z,33.10
2017-08-04T10:45:05.661Z,32.30
2017-08-04T10:47:33.932Z,31.10
2017-08-04T10:50:02.181Z,31.70
2017-08-04T10:52:30.422Z,31.30
2017-08-04T10:54:58.691Z,30.60
2017-08-04T10:57:26.951Z,29.30
2017-08-04T10:59:55.422Z,28.30
2017-08-04T11:02:23.701Z,28.10
2017-08-04T11:04:52.064Z,28.50
2017-08-04T11:07:20.524Z,28.50
2017-08-04T11:09:49.349Z,28.10
2017-08-04T11:12:17.580Z,28.10
2017-08-04T11:14:46.212Z,27.90
2017-08-04T11:17:14.480Z,27.90
2017-08-04T11:19:42.733Z,28.10
2017-08-04T11:22:10.975Z,28.30
2017-08-04T11:24:39.241Z,27.50
2017-08-04T11:27:07.607Z,27.70
2017-08-04T11:29:35.847Z,27.70
2017-08-04T11:32:04.254Z,28.70
2017-08-04T11:34:32.475Z,28.30
2017-08-04T11:37:00.720Z,28.60
2017-08-04T11:39:28.980Z,27.90
2017-08-04T11:41:57.219Z,28.90
2017-08-04T11:44:25.459Z,29.70
2017-08-04T11:46:54.508Z,29.80
2017-08-04T11:49:22.814Z,29.30
2017-08-04T11:51:51.049Z,29.90
2017-08-04T11:54:19.341Z,31.60
2017-08-04T11:56:47.585Z,29.90
2017-08-04T11:59:16.244Z,30.70
2017-08-04T12:01:44.523Z,30.70
2017-08-04T12:04:13.019Z,30.40
2017-08-04T12:06:41.268Z,30.30
2017-08-04T12:09:09.685Z,31.10
2017-08-04T12:11:38.784Z,30.60
2017-08-04T12:14:07.040Z,31.60
2017-08-04T12:16:35.336Z,30.80
2017-08-04T12:19:03.572Z,30.10
2017-08-04T12:21:31.832Z,30.40
2017-08-04T12:24:00.086Z,30.10
2017-08-04T12:26:29.153Z,29.30
2017-08-04T12:28:57.811Z,28.30
2017-08-04T12:31:26.124Z,28.30
2017-08-04T12:33:54.365Z,29.00
2017-08-04T12:36:22.637Z,29.70
2017-08-04T12:38:51.046Z,29.10
2017-08-04T12:41:19.296Z,28.90
2017-08-04T12:43:47.546Z,29.70
2017-08-04T12:46:15.850Z,29.70
2017-08-04T12:48:44.084Z,29.80
2017-08-04T12:51:12.420Z,29.80
2017-08-04T12:53:41.224Z,29.80
2017-08-04T12:56:09.465Z,29.30
2017-08-04T12:58:38.104Z,30.10
2017-08-04T13:01:06.387Z,30.10
2017-08-04T13:03:34.648Z,29.70
2017-08-04T13:06:02.959Z,30.30
2017-08-04T13:08:31.291Z,30.70
2017-08-04T13:10:59.521Z,31.00
2017-08-04T13:13:27.990Z,31.00
2017-08-04T13:15:56.389Z,30.70
2017-08-04T13:18:24.653Z,29.80
2017-08-04T13:20:53.315Z,30.10
2017-08-04T13:23:21.711Z,30.10
2017-08-04T13:25:49.925Z,30.40
2017-08-04T13:28:18.195Z,29.60
2017-08-04T13:30:46.866Z,29.90
2017-08-04T13:33:15.659Z,29.80
2017-08-04T13:35:44.295Z,29.50
2017-08-04T13:38:18.287Z,29.50
2017-08-04T13:40:46.646Z,29.60
2017-08-04T13:43:14.901Z,29.30
2017-08-04T13:45:44.032Z,29.30
2017-08-04T13:48:12.295Z,29.20
2017-08-04T13:50:40.605Z,29.60
2017-08-04T13:53:09.559Z,29.60
2017-08-04T13:55:38.190Z,29.50
2017-08-04T13:58:06.501Z,29.50
2017-08-04T14:00:34.777Z,29.60
2017-08-04T14:03:03.032Z,29.50
2017-08-04T14:05:31.296Z,30.10
2017-08-04T14:07:59.589Z,29.10
2017-08-04T14:10:27.836Z,28.60
2017-08-04T14:12:56.079Z,29.70
2017-08-04T14:15:24.341Z,29.60
2017-08-04T14:17:52.584Z,30.30
2017-08-04T14:20:20.821Z,29.70
2017-08-04T14:22:49.092Z,30.40
2017-08-04T14:25:17.492Z,30.30
2017-08-04T14:27:45.759Z,30.40
2017-08-04T14:30:14.023Z,30.80
2017-08-04T14:32:42.275Z,30.10
2017-08-04T14:35:10.512Z,30.60
2017-08-04T14:37:38.961Z,30.10
2017-08-04T14:40:07.746Z,30.40
2017-08-04T14:42:35.985Z,29.80
2017-08-04T14:45:04.685Z,29.90
2017-08-04T14:47:33.315Z,30.10
2017-08-04T14:50:01.563Z,30.10
2017-08-04T14:52:29.994Z,30.70
2017-08-04T14:54:58.231Z,30.70
2017-08-04T14:57:26.479Z,29.50
2017-08-04T14:59:55.147Z,29.80
2017-08-04T15:02:23.445Z,29.80
2017-08-04T15:04:51.677Z,29.90
2017-08-04T15:07:19.942Z,31.10
2017-08-04T15:09:48.175Z,31.10
2017-08-04T15:12:16.430Z,30.30
2017-08-04T15:14:45.117Z,30.40
2017-08-04T15:17:13.369Z,30.40
2017-08-04T15:19:41.608Z,30.10
2017-08-04T15:22:10.123Z,30.40
2017-08-04T15:24:38.358Z,30.30
2017-08-04T15:27:06.603Z,31.70
2017-08-04T15:29:35.275Z,32.30
2017-08-04T15:32:03.512Z,32.30
2017-08-04T15:34:31.756Z,31.00
2017-08-04T15:37:00.039Z,32.00
2017-08-04T15:39:28.390Z,30.70
2017-08-04T15:41:56.957Z,31.40
2017-08-04T15:44:25.342Z,31.90
2017-08-04T15:46:53.609Z,32.80
2017-08-04T15:49:21.858Z,31.00
2017-08-04T15:51:50.162Z,32.00
2017-08-04T15:54:18.592Z,32.50
2017-08-04T15:56:46.861Z,30.10
2017-08-04T15:59:15.493Z,31.40
2017-08-04T16:01:43.733Z,31.40
2017-08-04T16:04:11.989Z,31.40
2017-08-04T16:06:40.458Z,31.90
2017-08-04T16:09:09.108Z,31.60
2017-08-04T16:11:38.273Z,31.60
2017-08-04T16:14:06.539Z,31.60
2017-08-04T16:16:35.004Z,32.20
2017-08-04T16:19:03.516Z,31.60
2017-08-04T16:21:31.972Z,31.40
2017-08-04T16:24:00.258Z,31.70
2017-08-04T16:26:28.512Z,31.60
2017-08-04T16:28:57.219Z,31.30
2017-08-04T16:31:25.639Z,30.80
2017-08-04T16:33:53.875Z,30.70
2017-08-04T16:36:22.165Z,30.60
2017-08-04T16:38:50.468Z,31.40
2017-08-04T16:41:18.688Z,30.70
2017-08-04T16:43:47.240Z,30.40
2017-08-04T16:46:15.481Z,30.80
2017-08-04T16:48:43.707Z,31.40
2017-08-04T16:51:12.075Z,31.70
2017-08-04T16:53:40.957Z,30.40
2017-08-04T16:56:09.191Z,30.40
2017-08-04T16:58:37.538Z,30.40
2017-08-04T17:01:05.835Z,30.80
2017-08-04T17:03:34.301Z,30.40
2017-08-04T17:06:02.707Z,31.10
2017-08-04T17:11:12.967Z,31.00
2017-08-04T17:13:41.277Z,31.30
2017-08-04T17:16:09.548Z,30.80
2017-08-04T17:18:38.082Z,31.10
2017-08-04T17:21:06.352Z,31.30
2017-08-04T17:23:35.805Z,31.30
2017-08-04T17:26:04.164Z,31.30
2017-08-04T17:28:32.413Z,31.90
2017-08-04T17:31:00.648Z,32.30
2017-08-04T17:33:29.417Z,32.20
2017-08-04T17:35:57.723Z,32.60
2017-08-04T17:38:25.952Z,33.10
2017-08-04T17:40:54.485Z,33.70
2017-08-04T17:43:23.005Z,33.70
2017-08-04T17:45:51.269Z,33.70
2017-08-04T17:48:19.695Z,34.00
2017-08-04T17:50:47.934Z,34.00
2017-08-04T17:53:16.170Z,35.00
2017-08-04T17:55:44.588Z,35.30
2017-08-04T17:58:24.719Z,34.00
2017-08-04T18:00:53.402Z,35.10
2017-08-04T18:03:21.753Z,35.10
2017-08-04T18:05:50.112Z,38.70
2017-08-04T18:08:18.854Z,38.80
2017-08-04T18:10:47.675Z,38.10
2017-08-04T18:13:16.008Z,34.40
2017-08-04T18:15:44.292Z,35.00
2017-08-04T18:18:12.527Z,35.30
2017-08-04T18:20:40.767Z,36.50
2017-08-04T18:23:09.199Z,39.00
2017-08-04T18:25:37.471Z,39.00
2017-08-04T18:28:06.283Z,38.50
2017-08-04T18:30:34.997Z,38.10
2017-08-04T18:33:03.233Z,38.10
2017-08-04T18:35:31.468Z,36.00
2017-08-04T18:37:59.893Z,36.00
2017-08-04T18:40:28.124Z,38.20
2017-08-04T18:42:56.408Z,39.30
2017-08-04T18:45:24.671Z,40.00
2017-08-04T18:47:52.907Z,40.30
2017-08-04T18:50:21.560Z,40.70
2017-08-04T18:52:50.020Z,40.70
2017-08-04T18:55:18.307Z,40.90
2017-08-04T18:57:46.562Z,40.90
2017-08-04T19:00:14.844Z,41.30
2017-08-04T19:02:43.110Z,39.70
2017-08-04T19:05:11.357Z,40.20
2017-08-04T19:07:40.036Z,39.70
2017-08-04T19:10:08.677Z,40.30
2017-08-04T19:12:36.909Z,40.30
2017-08-04T19:15:05.200Z,39.40
2017-08-04T19:17:33.448Z,40.90
2017-08-04T19:20:02.087Z,40.00
2017-08-04T19:22:31.501Z,40.00
2017-08-04T19:24:59.745Z,41.00
2017-08-04T19:27:27.996Z,39.90
2017-08-04T19:29:56.276Z,41.80
2017-08-04T19:32:24.565Z,40.30
2017-08-04T19:34:52.802Z,40.20
2017-08-04T19:37:21.251Z,40.20
2017-08-04T19:39:49.531Z,40.00
2017-08-04T19:42:17.794Z,39.60
2017-08-04T19:44:46.092Z,39.90
2017-08-04T19:47:14.332Z,39.40
2017-08-04T19:49:42.642Z,39.40
2017-08-04T19:52:10.930Z,39.60
2017-08-04T19:54:39.181Z,40.20
2017-08-04T19:57:07.445Z,40.00
2017-08-04T19:59:35.733Z,39.30
2017-08-04T20:02:03.975Z,39.90
2017-08-04T20:04:32.235Z,40.30
2017-08-04T20:07:02.366Z,40.30
2017-08-04T20:09:31.343Z,40.20
2017-08-04T20:11:59.685Z,40.20
2017-08-04T20:14:27.940Z,39.60
2017-08-04T20:16:58.108Z,40.50
2017-08-04T20:19:26.708Z,40.30
2017-08-04T20:22:00.244Z,40.50
2017-08-04T20:27:20.737Z,41.00
2017-08-04T20:29:49.008Z,40.60
2017-08-04T20:32:17.371Z,42.50
2017-08-04T20:34:46.149Z,40.00
2017-08-04T20:37:14.808Z,41.60
2017-08-04T20:39:43.072Z,41.60
2017-08-04T20:42:11.876Z,41.80
2017-08-04T20:44:40.124Z,40.90
2017-08-04T20:47:08.373Z,41.20
2017-08-04T20:49:36.648Z,42.80
2017-08-04T20:52:04.937Z,43.10
2017-08-04T20:54:34.141Z,43.90
2017-08-04T20:57:02.436Z,42.10
2017-08-04T20:59:30.677Z,42.70
2017-08-04T21:01:58.920Z,43.40
2017-08-04T21:04:27.315Z,43.40
2017-08-04T21:06:55.942Z,44.10
2017-08-04T21:09:24.252Z,44.10
2017-08-04T21:11:52.789Z,45.50
2017-08-04T21:14:22.152Z,47.40
2017-08-04T21:16:50.661Z,48.10
2017-08-04T21:19:19.240Z,48.40
2017-08-04T21:21:47.496Z,48.60
2017-08-04T21:24:15.741Z,48.90
2017-08-04T21:26:44.398Z,49.00
2017-08-04T21:29:12.668Z,49.50
2017-08-04T21:31:40.900Z,49.80
2017-08-04T21:34:09.251Z,50.10
2017-08-04T21:36:37.485Z,50.40
2017-08-04T21:39:05.963Z,50.50
2017-08-04T21:41:34.400Z,50.50
2017-08-04T21:44:02.874Z,50.90
2017-08-04T21:46:31.118Z,51.10
2017-08-04T21:48:59.948Z,51.80
2017-08-04T21:51:28.225Z,51.80
2017-08-04T21:53:56.701Z,51.70
2017-08-04T21:56:25.412Z,52.00
2017-08-04T21:58:53.876Z,52.00
2017-08-04T22:01:22.933Z,53.20
2017-08-04T22:03:51.669Z,53.90
2017-08-04T22:06:20.660Z,54.20
2017-08-04T22:08:49.210Z,54.90
2017-08-04T22:11:17.540Z,55.20
2017-08-04T22:13:46.731Z,55.40
2017-08-04T22:16:14.996Z,56.00
2017-08-04T22:18:43.664Z,56.60
2017-08-04T22:21:11.925Z,56.60
2017-08-04T22:23:40.183Z,56.70
2017-08-04T22:26:08.590Z,57.20
2017-08-04T22:28:36.852Z,57.20
2017-08-04T22:31:05.123Z,57.20
2017-08-04T22:33:33.418Z,57.30
2017-08-04T22:36:01.653Z,57.40
2017-08-04T22:38:29.895Z,57.60
2017-08-04T22:40:58.176Z,57.90
2017-08-04T22:43:26.404Z,57.60
2017-08-04T22:45:54.645Z,57.40
2017-08-04T22:48:23.100Z,57.60
2017-08-04T22:50:51.584Z,57.40
2017-08-04T22:53:19.835Z,58.00
2017-08-04T22:55:48.099Z,58.00
2017-08-04T22:58:16.338Z,57.40
2017-08-04T23:00:44.623Z,56.70
2017-08-04T23:03:12.872Z,55.80
2017-08-04T23:05:41.126Z,54.90
2017-08-04T23:08:09.424Z,54.90
2017-08-04T23:10:37.674Z,54.60
2017-08-04T23:13:06.307Z,53.00
2017-08-04T23:15:34.575Z,53.00
2017-08-04T23:18:02.803Z,52.90
2017-08-04T23:20:31.053Z,52.60
2017-08-04T23:22:59.307Z,52.90
2017-08-04T23:25:27.540Z,52.90
2017-08-04T23:27:56.209Z,54.90
2017-08-04T23:30:24.468Z,54.90
2017-08-04T23:32:52.901Z,56.00
2017-08-04T23:35:21.324Z,56.60
2017-08-04T23:37:49.557Z,56.70
2017-08-04T23:40:18.017Z,56.60
2017-08-04T23:42:46.294Z,56.70
2017-08-04T23:45:14.925Z,56.70
2017-08-04T23:47:43.152Z,56.70
2017-08-04T23:50:12.589Z,56.70
2017-08-04T23:52:40.908Z,56.70
2017-08-04T23:55:09.161Z,56.30
2017-08-04T23:57:37.533Z,56.60
